sensor_id;sensor_type;location;lat;lon;timestamp;temperature;humidity
15288;DHT22;7745;48.708;9.026;2023-04-24T00:01:13;10.90;99.90
15288;DHT22;7745;48.708;9.026;2023-04-24T00:03:40;10.90;99.90
15288;DHT22;7745;48.708;9.026;2023-04-24T00:06:07;10.90;99.90
15288;DHT22;7745;48.708;9.026;2023-04-24T00:08:36;10.90;99.90
15288;DHT22;7745;48.708;9.026;2023-04-24T00:11:02;10.90;99.90
15288;DHT22;7745;48.708;9.026;2023-04-24T00:13:29;10.90;99.90
15288;DHT22;7745;48.708;9.026;2023-04-24T00:15:56;11.00;99.90
15288;DHT22;7745;48.708;9.026;2023-04-24T00:18:23;11.00;99.90
15288;DHT22;7745;48.708;9.026;2023-04-24T00:20:50;11.00;99.90
15288;DHT22;7745;48.708;9.026;2023-04-24T00:23:16;11.00;99.90
15288;DHT22;7745;48.708;9.026;2023-04-24T00:25:45;11.00;99.90
15288;DHT22;7745;48.708;9.026;2023-04-24T00:28:11;11.00;99.90
15288;DHT22;7745;48.708;9.026;2023-04-24T00:30:38;11.00;99.90
15288;DHT22;7745;48.708;9.026;2023-04-24T00:33:05;11.10;99.90
15288;DHT22;7745;48.708;9.026;2023-04-24T00:35:32;11.00;99.90
15288;DHT22;7745;48.708;9.026;2023-04-24T00:37:58;11.00;99.90
15288;DHT22;7745;48.708;9.026;2023-04-24T00:40:25;11.00;99.90
15288;DHT22;7745;48.708;9.026;2023-04-24T00:42:54;11.00;99.90
15288;DHT22;7745;48.708;9.026;2023-04-24T00:45:21;10.90;99.90
15288;DHT22;7745;48.708;9.026;2023-04-24T00:47:48;11.00;99.90
15288;DHT22;7745;48.708;9.026;2023-04-24T00:50:16;11.00;99.90
15288;DHT22;7745;48.708;9.026;2023-04-24T00:52:43;11.00;99.90
15288;DHT22;7745;48.708;9.026;2023-04-24T00:55:10;11.00;99.90
15288;DHT22;7745;48.708;9.026;2023-04-24T00:57:37;11.00;99.90
15288;DHT22;7745;48.708;9.026;2023-04-24T01:00:06;11.00;99.90
15288;DHT22;7745;48.708;9.026;2023-04-24T01:02:36;11.00;99.90
15288;DHT22;7745;48.708;9.026;2023-04-24T01:05:06;11.00;99.90
15288;DHT22;7745;48.708;9.026;2023-04-24T01:07:33;11.00;99.90
15288;DHT22;7745;48.708;9.026;2023-04-24T01:09:59;11.00;99.90
15288;DHT22;7745;48.708;9.026;2023-04-24T01:12:26;11.00;99.90
15288;DHT22;7745;48.708;9.026;2023-04-24T01:14:54;11.00;99.90
15288;DHT22;7745;48.708;9.026;2023-04-24T01:17:23;11.00;99.90
15288;DHT22;7745;48.708;9.026;2023-04-24T01:19:50;11.00;99.90
15288;DHT22;7745;48.708;9.026;2023-04-24T01:22:20;11.00;99.90
15288;DHT22;7745;48.708;9.026;2023-04-24T01:24:47;11.00;99.90
15288;DHT22;7745;48.708;9.026;2023-04-24T01:27:14;10.90;99.90
15288;DHT22;7745;48.708;9.026;2023-04-24T01:29:41;10.90;99.90
15288;DHT22;7745;48.708;9.026;2023-04-24T01:32:08;10.90;99.90
15288;DHT22;7745;48.708;9.026;2023-04-24T01:34:35;10.80;99.90
15288;DHT22;7745;48.708;9.026;2023-04-24T01:37:02;10.80;99.90
15288;DHT22;7745;48.708;9.026;2023-04-24T01:39:31;10.90;99.90
15288;DHT22;7745;48.708;9.026;2023-04-24T01:41:59;10.90;99.90
15288;DHT22;7745;48.708;9.026;2023-04-24T01:44:26;11.00;99.90
15288;DHT22;7745;48.708;9.026;2023-04-24T01:46:54;10.90;99.90
15288;DHT22;7745;48.708;9.026;2023-04-24T01:49:21;10.80;99.90
15288;DHT22;7745;48.708;9.026;2023-04-24T01:51:48;10.80;99.90
15288;DHT22;7745;48.708;9.026;2023-04-24T01:54:15;10.80;99.90
15288;DHT22;7745;48.708;9.026;2023-04-24T01:56:43;10.80;99.90
15288;DHT22;7745;48.708;9.026;2023-04-24T01:59:10;10.80;99.90
15288;DHT22;7745;48.708;9.026;2023-04-24T02:01:38;10.80;99.90
15288;DHT22;7745;48.708;9.026;2023-04-24T02:04:06;10.80;99.90
15288;DHT22;7745;48.708;9.026;2023-04-24T02:06:34;10.80;99.90
15288;DHT22;7745;48.708;9.026;2023-04-24T02:09:01;10.80;99.90
15288;DHT22;7745;48.708;9.026;2023-04-24T02:11:28;10.80;99.90
15288;DHT22;7745;48.708;9.026;2023-04-24T02:13:56;10.80;99.90
15288;DHT22;7745;48.708;9.026;2023-04-24T02:16:23;10.80;99.90
15288;DHT22;7745;48.708;9.026;2023-04-24T02:18:50;10.70;99.90
15288;DHT22;7745;48.708;9.026;2023-04-24T02:21:17;10.90;99.90
15288;DHT22;7745;48.708;9.026;2023-04-24T02:23:43;10.70;99.90
15288;DHT22;7745;48.708;9.026;2023-04-24T02:26:11;10.70;99.90
15288;DHT22;7745;48.708;9.026;2023-04-24T02:28:37;10.70;99.90
15288;DHT22;7745;48.708;9.026;2023-04-24T02:31:05;10.70;99.90
15288;DHT22;7745;48.708;9.026;2023-04-24T02:33:32;10.70;99.90
15288;DHT22;7745;48.708;9.026;2023-04-24T02:35:59;10.70;99.90
15288;DHT22;7745;48.708;9.026;2023-04-24T02:38:26;10.60;99.90
15288;DHT22;7745;48.708;9.026;2023-04-24T02:40:52;10.60;99.90
15288;DHT22;7745;48.708;9.026;2023-04-24T02:43:19;10.60;99.90
15288;DHT22;7745;48.708;9.026;2023-04-24T02:45:46;10.70;99.90
15288;DHT22;7745;48.708;9.026;2023-04-24T02:48:14;10.60;99.90
15288;DHT22;7745;48.708;9.026;2023-04-24T02:50:42;10.60;99.90
15288;DHT22;7745;48.708;9.026;2023-04-24T02:53:09;10.40;99.90
15288;DHT22;7745;48.708;9.026;2023-04-24T02:55:36;10.40;99.90
15288;DHT22;7745;48.708;9.026;2023-04-24T02:58:03;10.40;99.90
15288;DHT22;7745;48.708;9.026;2023-04-24T03:00:30;10.40;99.90
15288;DHT22;7745;48.708;9.026;2023-04-24T03:02:56;10.60;99.90
15288;DHT22;7745;48.708;9.026;2023-04-24T03:05:24;10.40;99.90
15288;DHT22;7745;48.708;9.026;2023-04-24T03:07:52;10.60;99.90
15288;DHT22;7745;48.708;9.026;2023-04-24T03:10:19;10.40;99.90
15288;DHT22;7745;48.708;9.026;2023-04-24T03:12:47;10.40;99.90
15288;DHT22;7745;48.708;9.026;2023-04-24T03:15:14;10.30;99.90
15288;DHT22;7745;48.708;9.026;2023-04-24T03:17:41;10.30;99.90
15288;DHT22;7745;48.708;9.026;2023-04-24T03:20:08;10.20;99.90
15288;DHT22;7745;48.708;9.026;2023-04-24T03:22:37;10.20;99.90
15288;DHT22;7745;48.708;9.026;2023-04-24T03:25:04;10.20;99.90
15288;DHT22;7745;48.708;9.026;2023-04-24T03:27:31;10.20;99.90
15288;DHT22;7745;48.708;9.026;2023-04-24T03:29:58;10.20;99.90
15288;DHT22;7745;48.708;9.026;2023-04-24T03:32:26;10.40;99.90
15288;DHT22;7745;48.708;9.026;2023-04-24T03:34:53;10.20;99.90
15288;DHT22;7745;48.708;9.026;2023-04-24T03:37:20;10.20;99.90
15288;DHT22;7745;48.708;9.026;2023-04-24T03:39:48;10.20;99.90
15288;DHT22;7745;48.708;9.026;2023-04-24T03:42:14;10.20;99.90
15288;DHT22;7745;48.708;9.026;2023-04-24T03:44:41;10.30;99.90
15288;DHT22;7745;48.708;9.026;2023-04-24T03:47:08;10.40;99.90
15288;DHT22;7745;48.708;9.026;2023-04-24T03:49:35;10.80;99.90
15288;DHT22;7745;48.708;9.026;2023-04-24T03:52:02;10.10;99.90
15288;DHT22;7745;48.708;9.026;2023-04-24T03:54:29;10.10;99.90
15288;DHT22;7745;48.708;9.026;2023-04-24T03:56:57;10.00;99.90
15288;DHT22;7745;48.708;9.026;2023-04-24T03:59:23;10.00;99.90
15288;DHT22;7745;48.708;9.026;2023-04-24T04:01:50;10.10;99.90
15288;DHT22;7745;48.708;9.026;2023-04-24T04:04:17;10.00;99.90
15288;DHT22;7745;48.708;9.026;2023-04-24T04:06:44;10.30;99.90
15288;DHT22;7745;48.708;9.026;2023-04-24T04:09:12;10.00;99.90
15288;DHT22;7745;48.708;9.026;2023-04-24T04:11:38;10.10;99.90
15288;DHT22;7745;48.708;9.026;2023-04-24T04:14:07;10.20;99.90
15288;DHT22;7745;48.708;9.026;2023-04-24T04:16:33;10.10;99.90
15288;DHT22;7745;48.708;9.026;2023-04-24T04:19:01;10.10;99.90
15288;DHT22;7745;48.708;9.026;2023-04-24T04:21:28;10.20;99.90
15288;DHT22;7745;48.708;9.026;2023-04-24T04:23:56;10.30;99.90
15288;DHT22;7745;48.708;9.026;2023-04-24T04:26:23;10.10;99.90
15288;DHT22;7745;48.708;9.026;2023-04-24T04:28:51;9.90;99.90
15288;DHT22;7745;48.708;9.026;2023-04-24T04:31:19;9.50;99.90
15288;DHT22;7745;48.708;9.026;2023-04-24T04:33:46;9.20;99.90
15288;DHT22;7745;48.708;9.026;2023-04-24T04:36:13;9.10;99.90
15288;DHT22;7745;48.708;9.026;2023-04-24T04:38:39;9.00;99.90
15288;DHT22;7745;48.708;9.026;2023-04-24T04:41:08;9.30;99.90
15288;DHT22;7745;48.708;9.026;2023-04-24T04:43:35;8.80;99.90
15288;DHT22;7745;48.708;9.026;2023-04-24T04:46:01;8.80;99.90
15288;DHT22;7745;48.708;9.026;2023-04-24T04:48:30;8.70;99.90
15288;DHT22;7745;48.708;9.026;2023-04-24T04:50:57;8.70;99.90
15288;DHT22;7745;48.708;9.026;2023-04-24T04:53:24;8.70;99.90
15288;DHT22;7745;48.708;9.026;2023-04-24T04:55:51;8.70;99.90
15288;DHT22;7745;48.708;9.026;2023-04-24T04:58:18;8.80;99.90
15288;DHT22;7745;48.708;9.026;2023-04-24T05:00:45;9.00;99.90
15288;DHT22;7745;48.708;9.026;2023-04-24T05:03:12;8.90;99.90
15288;DHT22;7745;48.708;9.026;2023-04-24T05:05:40;8.90;99.90
15288;DHT22;7745;48.708;9.026;2023-04-24T05:08:09;9.00;99.90
15288;DHT22;7745;48.708;9.026;2023-04-24T05:10:39;8.90;99.90
15288;DHT22;7745;48.708;9.026;2023-04-24T05:13:05;8.90;99.90
15288;DHT22;7745;48.708;9.026;2023-04-24T05:15:32;8.90;99.90
15288;DHT22;7745;48.708;9.026;2023-04-24T05:17:59;9.00;99.90
15288;DHT22;7745;48.708;9.026;2023-04-24T05:20:26;8.90;99.90
15288;DHT22;7745;48.708;9.026;2023-04-24T05:22:54;8.90;99.90
15288;DHT22;7745;48.708;9.026;2023-04-24T05:25:21;9.10;99.90
15288;DHT22;7745;48.708;9.026;2023-04-24T05:27:48;9.00;99.90
15288;DHT22;7745;48.708;9.026;2023-04-24T05:30:14;9.20;99.90
15288;DHT22;7745;48.708;9.026;2023-04-24T05:32:42;9.00;99.90
15288;DHT22;7745;48.708;9.026;2023-04-24T05:35:10;9.00;99.90
15288;DHT22;7745;48.708;9.026;2023-04-24T05:37:37;9.00;99.90
15288;DHT22;7745;48.708;9.026;2023-04-24T05:40:06;9.10;99.90
15288;DHT22;7745;48.708;9.026;2023-04-24T05:42:33;9.00;99.90
15288;DHT22;7745;48.708;9.026;2023-04-24T05:45:00;9.00;99.90
15288;DHT22;7745;48.708;9.026;2023-04-24T05:47:26;9.10;99.90
15288;DHT22;7745;48.708;9.026;2023-04-24T05:49:53;9.20;99.90
15288;DHT22;7745;48.708;9.026;2023-04-24T05:52:23;9.10;99.90
15288;DHT22;7745;48.708;9.026;2023-04-24T05:54:50;9.10;99.90
15288;DHT22;7745;48.708;9.026;2023-04-24T05:57:18;9.20;99.90
15288;DHT22;7745;48.708;9.026;2023-04-24T05:59:45;9.00;99.90
15288;DHT22;7745;48.708;9.026;2023-04-24T06:02:12;9.20;99.90
15288;DHT22;7745;48.708;9.026;2023-04-24T06:04:38;9.00;99.90
15288;DHT22;7745;48.708;9.026;2023-04-24T06:07:05;9.00;99.90
15288;DHT22;7745;48.708;9.026;2023-04-24T06:09:32;9.00;99.90
15288;DHT22;7745;48.708;9.026;2023-04-24T06:11:59;9.10;99.90
15288;DHT22;7745;48.708;9.026;2023-04-24T06:14:27;9.30;99.90
15288;DHT22;7745;48.708;9.026;2023-04-24T06:16:54;9.50;99.90
15288;DHT22;7745;48.708;9.026;2023-04-24T06:19:20;9.70;99.90
15288;DHT22;7745;48.708;9.026;2023-04-24T06:21:47;10.00;99.90
15288;DHT22;7745;48.708;9.026;2023-04-24T06:24:14;10.30;99.90
15288;DHT22;7745;48.708;9.026;2023-04-24T06:26:42;10.30;99.90
15288;DHT22;7745;48.708;9.026;2023-04-24T06:29:09;10.50;99.90
15288;DHT22;7745;48.708;9.026;2023-04-24T06:31:37;10.60;99.90
15288;DHT22;7745;48.708;9.026;2023-04-24T06:34:04;10.80;99.90
15288;DHT22;7745;48.708;9.026;2023-04-24T06:36:31;10.90;99.90
15288;DHT22;7745;48.708;9.026;2023-04-24T06:38:58;10.80;99.90
15288;DHT22;7745;48.708;9.026;2023-04-24T06:41:24;10.70;99.90
15288;DHT22;7745;48.708;9.026;2023-04-24T06:57:30;11.60;99.90
15288;DHT22;7745;48.708;9.026;2023-04-24T07:03:19;11.70;99.90
15288;DHT22;7745;48.708;9.026;2023-04-24T07:05:45;11.70;99.90
15288;DHT22;7745;48.708;9.026;2023-04-24T07:08:13;11.60;99.90
15288;DHT22;7745;48.708;9.026;2023-04-24T07:10:41;11.40;99.90
15288;DHT22;7745;48.708;9.026;2023-04-24T07:13:09;11.20;99.90
15288;DHT22;7745;48.708;9.026;2023-04-24T07:15:36;11.00;99.90
15288;DHT22;7745;48.708;9.026;2023-04-24T07:18:03;10.70;99.90
15288;DHT22;7745;48.708;9.026;2023-04-24T07:20:29;10.60;99.90
15288;DHT22;7745;48.708;9.026;2023-04-24T07:22:56;10.70;99.90
15288;DHT22;7745;48.708;9.026;2023-04-24T07:25:23;10.60;99.90
15288;DHT22;7745;48.708;9.026;2023-04-24T07:27:50;10.70;99.90
15288;DHT22;7745;48.708;9.026;2023-04-24T07:30:18;10.80;99.90
15288;DHT22;7745;48.708;9.026;2023-04-24T07:32:45;11.00;99.90
15288;DHT22;7745;48.708;9.026;2023-04-24T07:35:12;11.20;99.90
15288;DHT22;7745;48.708;9.026;2023-04-24T07:37:39;11.40;99.90
15288;DHT22;7745;48.708;9.026;2023-04-24T07:40:11;11.50;99.90
15288;DHT22;7745;48.708;9.026;2023-04-24T07:42:38;11.60;99.90
15288;DHT22;7745;48.708;9.026;2023-04-24T07:45:06;11.70;99.90
15288;DHT22;7745;48.708;9.026;2023-04-24T07:47:34;11.50;99.90
15288;DHT22;7745;48.708;9.026;2023-04-24T07:50:02;11.50;99.90
15288;DHT22;7745;48.708;9.026;2023-04-24T07:52:29;11.50;99.90
15288;DHT22;7745;48.708;9.026;2023-04-24T07:54:56;11.60;99.90
15288;DHT22;7745;48.708;9.026;2023-04-24T07:57:25;11.70;99.90
15288;DHT22;7745;48.708;9.026;2023-04-24T07:59:52;11.70;99.90
15288;DHT22;7745;48.708;9.026;2023-04-24T08:02:19;11.60;99.90
15288;DHT22;7745;48.708;9.026;2023-04-24T08:04:48;11.40;99.90
15288;DHT22;7745;48.708;9.026;2023-04-24T08:07:15;11.30;99.90
15288;DHT22;7745;48.708;9.026;2023-04-24T08:09:42;11.30;99.90
15288;DHT22;7745;48.708;9.026;2023-04-24T08:12:09;11.20;99.90
15288;DHT22;7745;48.708;9.026;2023-04-24T08:14:37;10.90;99.90
15288;DHT22;7745;48.708;9.026;2023-04-24T08:17:03;10.80;99.90
15288;DHT22;7745;48.708;9.026;2023-04-24T08:19:30;10.90;99.90
15288;DHT22;7745;48.708;9.026;2023-04-24T08:21:59;10.90;99.90
15288;DHT22;7745;48.708;9.026;2023-04-24T08:24:26;11.00;99.90
15288;DHT22;7745;48.708;9.026;2023-04-24T08:26:53;11.30;99.90
15288;DHT22;7745;48.708;9.026;2023-04-24T08:29:22;11.70;99.90
15288;DHT22;7745;48.708;9.026;2023-04-24T08:31:49;12.00;99.90
15288;DHT22;7745;48.708;9.026;2023-04-24T08:34:16;12.40;99.90
15288;DHT22;7745;48.708;9.026;2023-04-24T08:36:43;12.30;99.90
15288;DHT22;7745;48.708;9.026;2023-04-24T08:39:14;12.30;99.90
15288;DHT22;7745;48.708;9.026;2023-04-24T08:41:43;12.20;99.90
15288;DHT22;7745;48.708;9.026;2023-04-24T08:44:11;12.10;99.90
15288;DHT22;7745;48.708;9.026;2023-04-24T08:46:39;12.10;99.90
15288;DHT22;7745;48.708;9.026;2023-04-24T08:49:07;12.00;99.90
15288;DHT22;7745;48.708;9.026;2023-04-24T08:51:34;12.10;99.90
15288;DHT22;7745;48.708;9.026;2023-04-24T08:54:06;11.90;99.90
15288;DHT22;7745;48.708;9.026;2023-04-24T08:56:37;11.80;99.90
15288;DHT22;7745;48.708;9.026;2023-04-24T08:59:05;11.80;99.90
15288;DHT22;7745;48.708;9.026;2023-04-24T09:01:33;11.90;99.90
15288;DHT22;7745;48.708;9.026;2023-04-24T09:04:02;12.00;99.90
15288;DHT22;7745;48.708;9.026;2023-04-24T09:06:30;11.90;99.90
15288;DHT22;7745;48.708;9.026;2023-04-24T09:09:00;11.70;99.90
15288;DHT22;7745;48.708;9.026;2023-04-24T09:11:30;11.70;99.90
15288;DHT22;7745;48.708;9.026;2023-04-24T09:13:58;11.60;99.90
15288;DHT22;7745;48.708;9.026;2023-04-24T09:16:26;11.50;99.90
15288;DHT22;7745;48.708;9.026;2023-04-24T09:18:53;11.40;99.90
15288;DHT22;7745;48.708;9.026;2023-04-24T09:21:22;11.30;99.90
15288;DHT22;7745;48.708;9.026;2023-04-24T09:23:58;11.30;99.90
15288;DHT22;7745;48.708;9.026;2023-04-24T09:26:29;11.50;99.90
15288;DHT22;7745;48.708;9.026;2023-04-24T09:29:04;11.80;99.90
15288;DHT22;7745;48.708;9.026;2023-04-24T09:31:33;11.90;99.90
15288;DHT22;7745;48.708;9.026;2023-04-24T09:34:03;12.10;99.90
15288;DHT22;7745;48.708;9.026;2023-04-24T09:36:36;12.20;99.90
15288;DHT22;7745;48.708;9.026;2023-04-24T09:39:04;12.50;99.90
15288;DHT22;7745;48.708;9.026;2023-04-24T09:41:33;12.50;99.90
15288;DHT22;7745;48.708;9.026;2023-04-24T09:44:12;12.60;99.90
15288;DHT22;7745;48.708;9.026;2023-04-24T09:46:41;12.30;99.90
15288;DHT22;7745;48.708;9.026;2023-04-24T09:49:09;12.30;99.90
15288;DHT22;7745;48.708;9.026;2023-04-24T09:51:37;12.30;99.90
15288;DHT22;7745;48.708;9.026;2023-04-24T09:54:13;12.20;99.90
15288;DHT22;7745;48.708;9.026;2023-04-24T09:56:43;12.10;99.90
15288;DHT22;7745;48.708;9.026;2023-04-24T09:59:12;12.00;99.90
15288;DHT22;7745;48.708;9.026;2023-04-24T10:01:40;11.90;99.90
15288;DHT22;7745;48.708;9.026;2023-04-24T10:04:15;11.90;99.90
15288;DHT22;7745;48.708;9.026;2023-04-24T10:06:44;12.00;99.90
15288;DHT22;7745;48.708;9.026;2023-04-24T10:09:11;12.20;99.90
15288;DHT22;7745;48.708;9.026;2023-04-24T10:11:42;12.30;99.90
15288;DHT22;7745;48.708;9.026;2023-04-24T10:14:12;12.40;99.90
15288;DHT22;7745;48.708;9.026;2023-04-24T10:16:40;12.50;99.90
15288;DHT22;7745;48.708;9.026;2023-04-24T10:19:08;12.60;99.90
15288;DHT22;7745;48.708;9.026;2023-04-24T10:21:44;12.60;99.90
15288;DHT22;7745;48.708;9.026;2023-04-24T10:24:24;12.50;99.90
15288;DHT22;7745;48.708;9.026;2023-04-24T10:27:05;12.50;99.90
15288;DHT22;7745;48.708;9.026;2023-04-24T10:29:39;12.60;99.90
15288;DHT22;7745;48.708;9.026;2023-04-24T10:32:21;12.50;99.90
15288;DHT22;7745;48.708;9.026;2023-04-24T10:34:48;12.40;99.90
15288;DHT22;7745;48.708;9.026;2023-04-24T10:37:15;12.30;99.90
15288;DHT22;7745;48.708;9.026;2023-04-24T10:39:42;12.50;99.90
15288;DHT22;7745;48.708;9.026;2023-04-24T10:42:16;12.60;99.90
15288;DHT22;7745;48.708;9.026;2023-04-24T10:44:47;12.60;99.90
15288;DHT22;7745;48.708;9.026;2023-04-24T10:47:16;12.70;99.90
15288;DHT22;7745;48.708;9.026;2023-04-24T10:49:43;12.80;99.90
15288;DHT22;7745;48.708;9.026;2023-04-24T10:52:10;12.60;99.90
15288;DHT22;7745;48.708;9.026;2023-04-24T10:54:42;12.40;99.90
15288;DHT22;7745;48.708;9.026;2023-04-24T10:57:27;12.60;99.90
15288;DHT22;7745;48.708;9.026;2023-04-24T11:00:16;12.30;99.90
15288;DHT22;7745;48.708;9.026;2023-04-24T11:02:46;12.10;99.90
15288;DHT22;7745;48.708;9.026;2023-04-24T11:05:16;11.80;99.90
15288;DHT22;7745;48.708;9.026;2023-04-24T11:08:21;11.70;99.90
15288;DHT22;7745;48.708;9.026;2023-04-24T11:11:02;11.60;99.90
15288;DHT22;7745;48.708;9.026;2023-04-24T11:14:06;11.80;99.90
15288;DHT22;7745;48.708;9.026;2023-04-24T11:16:43;11.80;99.90
15288;DHT22;7745;48.708;9.026;2023-04-24T11:19:20;12.00;99.90
15288;DHT22;7745;48.708;9.026;2023-04-24T11:21:48;12.10;99.90
15288;DHT22;7745;48.708;9.026;2023-04-24T11:24:31;12.40;99.90
15288;DHT22;7745;48.708;9.026;2023-04-24T11:27:06;12.50;99.90
15288;DHT22;7745;48.708;9.026;2023-04-24T11:29:42;12.60;99.90
15288;DHT22;7745;48.708;9.026;2023-04-24T11:32:26;12.50;99.90
15288;DHT22;7745;48.708;9.026;2023-04-24T11:34:55;12.10;99.90
15288;DHT22;7745;48.708;9.026;2023-04-24T11:37:22;11.90;99.90
15288;DHT22;7745;48.708;9.026;2023-04-24T11:39:51;11.80;99.90
15288;DHT22;7745;48.708;9.026;2023-04-24T11:42:18;11.80;99.90
15288;DHT22;7745;48.708;9.026;2023-04-24T11:44:46;11.80;99.90
15288;DHT22;7745;48.708;9.026;2023-04-24T11:47:14;11.90;99.90
15288;DHT22;7745;48.708;9.026;2023-04-24T11:49:42;11.90;99.90
15288;DHT22;7745;48.708;9.026;2023-04-24T11:52:09;12.20;99.90
15288;DHT22;7745;48.708;9.026;2023-04-24T11:54:36;12.40;99.90
15288;DHT22;7745;48.708;9.026;2023-04-24T11:57:04;12.50;99.90
15288;DHT22;7745;48.708;9.026;2023-04-24T11:59:35;12.70;99.90
15288;DHT22;7745;48.708;9.026;2023-04-24T12:02:03;12.60;99.90
15288;DHT22;7745;48.708;9.026;2023-04-24T12:04:39;12.40;99.90
15288;DHT22;7745;48.708;9.026;2023-04-24T12:07:08;12.20;99.90
15288;DHT22;7745;48.708;9.026;2023-04-24T12:09:42;11.90;99.90
15288;DHT22;7745;48.708;9.026;2023-04-24T12:12:10;11.70;99.90
15288;DHT22;7745;48.708;9.026;2023-04-24T12:14:47;11.70;99.90
15288;DHT22;7745;48.708;9.026;2023-04-24T12:17:14;11.80;99.90
15288;DHT22;7745;48.708;9.026;2023-04-24T12:19:45;11.90;99.90
15288;DHT22;7745;48.708;9.026;2023-04-24T12:22:14;12.00;99.90
15288;DHT22;7745;48.708;9.026;2023-04-24T12:25:00;12.20;99.90
15288;DHT22;7745;48.708;9.026;2023-04-24T12:27:31;12.30;99.90
15288;DHT22;7745;48.708;9.026;2023-04-24T12:30:00;12.30;99.90
15288;DHT22;7745;48.708;9.026;2023-04-24T12:32:27;12.10;99.90
15288;DHT22;7745;48.708;9.026;2023-04-24T12:34:54;12.20;99.90
15288;DHT22;7745;48.708;9.026;2023-04-24T12:37:24;12.00;99.90
15288;DHT22;7745;48.708;9.026;2023-04-24T12:40:05;11.80;99.90
15288;DHT22;7745;48.708;9.026;2023-04-24T12:42:34;11.50;99.90
15288;DHT22;7745;48.708;9.026;2023-04-24T12:45:02;11.30;99.90
15288;DHT22;7745;48.708;9.026;2023-04-24T12:47:30;11.20;99.90
15288;DHT22;7745;48.708;9.026;2023-04-24T12:49:57;11.10;99.90
15288;DHT22;7745;48.708;9.026;2023-04-24T12:52:26;11.10;99.90
15288;DHT22;7745;48.708;9.026;2023-04-24T12:54:53;11.10;99.90
15288;DHT22;7745;48.708;9.026;2023-04-24T12:57:21;11.00;99.90
15288;DHT22;7745;48.708;9.026;2023-04-24T12:59:48;11.00;99.90
15288;DHT22;7745;48.708;9.026;2023-04-24T13:02:15;10.90;99.90
15288;DHT22;7745;48.708;9.026;2023-04-24T13:04:44;10.80;99.90
15288;DHT22;7745;48.708;9.026;2023-04-24T13:07:11;10.90;99.90
15288;DHT22;7745;48.708;9.026;2023-04-24T13:09:40;10.90;99.90
15288;DHT22;7745;48.708;9.026;2023-04-24T13:12:07;11.10;99.90
15288;DHT22;7745;48.708;9.026;2023-04-24T13:14:35;11.20;99.90
15288;DHT22;7745;48.708;9.026;2023-04-24T13:17:01;11.40;99.90
15288;DHT22;7745;48.708;9.026;2023-04-24T13:19:29;11.50;99.90
15288;DHT22;7745;48.708;9.026;2023-04-24T13:21:56;11.70;99.90
15288;DHT22;7745;48.708;9.026;2023-04-24T13:24:24;11.70;99.90
15288;DHT22;7745;48.708;9.026;2023-04-24T13:26:53;11.70;99.90
15288;DHT22;7745;48.708;9.026;2023-04-24T13:29:20;11.50;99.90
15288;DHT22;7745;48.708;9.026;2023-04-24T13:31:47;11.40;99.90
15288;DHT22;7745;48.708;9.026;2023-04-24T13:34:14;11.20;99.90
15288;DHT22;7745;48.708;9.026;2023-04-24T13:36:41;11.20;99.90
15288;DHT22;7745;48.708;9.026;2023-04-24T13:39:08;11.10;99.90
15288;DHT22;7745;48.708;9.026;2023-04-24T13:41:35;11.00;99.90
15288;DHT22;7745;48.708;9.026;2023-04-24T13:44:03;11.00;99.90
15288;DHT22;7745;48.708;9.026;2023-04-24T13:46:30;11.10;99.90
15288;DHT22;7745;48.708;9.026;2023-04-24T13:48:57;11.30;99.90
15288;DHT22;7745;48.708;9.026;2023-04-24T13:51:25;11.60;99.90
15288;DHT22;7745;48.708;9.026;2023-04-24T13:53:55;11.70;99.90
15288;DHT22;7745;48.708;9.026;2023-04-24T13:56:23;12.00;99.90
15288;DHT22;7745;48.708;9.026;2023-04-24T13:58:50;12.00;99.90
15288;DHT22;7745;48.708;9.026;2023-04-24T14:01:18;12.00;99.90
15288;DHT22;7745;48.708;9.026;2023-04-24T14:03:46;11.90;99.90
15288;DHT22;7745;48.708;9.026;2023-04-24T14:06:13;11.70;99.90
15288;DHT22;7745;48.708;9.026;2023-04-24T14:08:39;11.50;99.90
15288;DHT22;7745;48.708;9.026;2023-04-24T14:11:06;11.40;99.90
15288;DHT22;7745;48.708;9.026;2023-04-24T14:13:33;11.20;99.90
15288;DHT22;7745;48.708;9.026;2023-04-24T14:16:00;11.10;99.90
15288;DHT22;7745;48.708;9.026;2023-04-24T14:18:28;10.70;99.90
15288;DHT22;7745;48.708;9.026;2023-04-24T14:20:55;10.50;99.90
15288;DHT22;7745;48.708;9.026;2023-04-24T14:23:21;10.40;99.90
15288;DHT22;7745;48.708;9.026;2023-04-24T14:25:48;10.60;99.90
15288;DHT22;7745;48.708;9.026;2023-04-24T14:28:17;10.80;99.90
15288;DHT22;7745;48.708;9.026;2023-04-24T14:30:44;11.10;99.90
15288;DHT22;7745;48.708;9.026;2023-04-24T14:33:11;10.90;99.90
15288;DHT22;7745;48.708;9.026;2023-04-24T14:35:42;11.10;99.90
15288;DHT22;7745;48.708;9.026;2023-04-24T14:38:12;11.20;99.90
15288;DHT22;7745;48.708;9.026;2023-04-24T14:40:40;11.30;99.90
15288;DHT22;7745;48.708;9.026;2023-04-24T14:43:07;11.30;99.90
15288;DHT22;7745;48.708;9.026;2023-04-24T14:45:33;11.30;99.90
15288;DHT22;7745;48.708;9.026;2023-04-24T14:48:00;11.60;99.90
15288;DHT22;7745;48.708;9.026;2023-04-24T14:50:27;11.80;99.90
15288;DHT22;7745;48.708;9.026;2023-04-24T14:52:56;12.00;99.90
15288;DHT22;7745;48.708;9.026;2023-04-24T14:55:23;12.10;99.90
15288;DHT22;7745;48.708;9.026;2023-04-24T14:57:51;12.00;99.90
15288;DHT22;7745;48.708;9.026;2023-04-24T15:00:19;11.90;99.90
15288;DHT22;7745;48.708;9.026;2023-04-24T15:02:46;11.70;99.90
15288;DHT22;7745;48.708;9.026;2023-04-24T15:05:13;11.50;99.90
15288;DHT22;7745;48.708;9.026;2023-04-24T15:07:39;11.40;99.90
15288;DHT22;7745;48.708;9.026;2023-04-24T15:10:09;11.20;99.90
15288;DHT22;7745;48.708;9.026;2023-04-24T15:12:36;11.10;99.90
15288;DHT22;7745;48.708;9.026;2023-04-24T15:15:04;11.00;99.90
15288;DHT22;7745;48.708;9.026;2023-04-24T15:17:31;10.90;99.90
15288;DHT22;7745;48.708;9.026;2023-04-24T15:19:57;10.80;99.90
15288;DHT22;7745;48.708;9.026;2023-04-24T15:22:24;10.80;99.90
15288;DHT22;7745;48.708;9.026;2023-04-24T15:24:51;10.80;99.90
15288;DHT22;7745;48.708;9.026;2023-04-24T15:27:19;10.80;99.90
15288;DHT22;7745;48.708;9.026;2023-04-24T15:29:49;10.80;99.90
15288;DHT22;7745;48.708;9.026;2023-04-24T15:32:16;10.70;99.90
15288;DHT22;7745;48.708;9.026;2023-04-24T15:34:44;10.70;99.90
15288;DHT22;7745;48.708;9.026;2023-04-24T15:37:11;10.70;99.90
15288;DHT22;7745;48.708;9.026;2023-04-24T15:39:39;10.80;99.90
15288;DHT22;7745;48.708;9.026;2023-04-24T15:42:06;10.70;99.90
15288;DHT22;7745;48.708;9.026;2023-04-24T15:44:35;10.90;99.90
15288;DHT22;7745;48.708;9.026;2023-04-24T15:47:02;10.90;99.90
15288;DHT22;7745;48.708;9.026;2023-04-24T15:49:31;10.90;99.90
15288;DHT22;7745;48.708;9.026;2023-04-24T15:51:58;11.00;99.90
15288;DHT22;7745;48.708;9.026;2023-04-24T15:54:25;11.10;99.90
15288;DHT22;7745;48.708;9.026;2023-04-24T15:56:52;11.20;99.90
15288;DHT22;7745;48.708;9.026;2023-04-24T15:59:20;11.50;99.90
15288;DHT22;7745;48.708;9.026;2023-04-24T16:01:50;11.70;99.90
15288;DHT22;7745;48.708;9.026;2023-04-24T16:04:17;11.90;99.90
15288;DHT22;7745;48.708;9.026;2023-04-24T16:06:44;11.90;99.90
15288;DHT22;7745;48.708;9.026;2023-04-24T16:09:12;12.00;99.90
15288;DHT22;7745;48.708;9.026;2023-04-24T16:11:39;11.90;99.90